Time;durP1;ratioP1;P1;durP2;ratioP2;P2;SDS_P1;SDS_P2;PMS_P1;PMS_P2;Temp;Humidity;BMP_temperature;BMP_pressure;BME280_temperature;BME280_humidity;BME280_pressure;Samples;Min_cycle;Max_cycle;Signal;HPM_P1;HPM_P2
2024/02/25 00:01:48;;;;;;;9.38;5.82;;;6.40;87.30;;;;;;4999142;28;20788;-85
2024/02/25 00:04:15;;;;;;;7.70;5.03;;;6.30;89.80;;;;;;5006504;28;20215;-87
2024/02/25 00:06:44;;;;;;;8.70;4.80;;;6.30;89.90;;;;;;5012324;28;20195;-84
2024/02/25 00:09:14;;;;;;;6.75;5.00;;;6.30;89.80;;;;;;5011363;28;20203;-85
2024/02/25 00:11:46;;;;;;;8.15;4.80;;;6.30;89.80;;;;;;5004606;28;20207;-84
2024/02/25 00:14:13;;;;;;;7.78;4.88;;;6.20;89.40;;;;;;5007176;28;20279;-86
2024/02/25 00:16:41;;;;;;;6.28;4.60;;;6.20;89.70;;;;;;5007195;28;20659;-84
2024/02/25 00:19:10;;;;;;;4.20;3.58;;;5.90;89.60;;;;;;5011265;28;20226;-87
2024/02/25 00:21:37;;;;;;;4.50;3.80;;;5.90;91.00;;;;;;5003345;28;20206;-86
2024/02/25 00:24:07;;;;;;;4.03;3.40;;;5.80;91.50;;;;;;4995025;28;20209;-85
2024/02/25 00:26:36;;;;;;;6.07;3.45;;;5.80;91.70;;;;;;4994909;28;20282;-85
2024/02/25 00:29:03;;;;;;;6.35;3.50;;;5.70;91.70;;;;;;5012582;28;20199;-87
2024/02/25 00:31:30;;;;;;;5.60;3.95;;;5.70;92.10;;;;;;5001356;28;20653;-85
2024/02/25 00:33:57;;;;;;;5.85;3.40;;;5.60;92.10;;;;;;5001883;28;20207;-88
2024/02/25 00:36:24;;;;;;;5.05;3.28;;;5.60;92.70;;;;;;5008589;28;20203;-85
2024/02/25 00:38:51;;;;;;;4.70;3.40;;;5.60;92.50;;;;;;4995898;28;20209;-84
2024/02/25 00:41:19;;;;;;;4.88;3.13;;;5.60;92.50;;;;;;5015417;28;20222;-84
2024/02/25 00:43:48;;;;;;;5.00;3.17;;;5.70;92.20;;;;;;4993537;28;20210;-84
2024/02/25 00:46:14;;;;;;;5.30;3.45;;;5.70;91.80;;;;;;5007011;28;20207;-84
2024/02/25 00:48:41;;;;;;;4.73;2.97;;;5.60;91.90;;;;;;5006603;28;20199;-84
2024/02/25 00:51:08;;;;;;;3.80;3.00;;;5.60;92.30;;;;;;5012612;28;20210;-88
2024/02/25 00:53:46;;;;;;;4.55;3.33;;;5.60;92.20;;;;;;5010750;28;20752;-84
2024/02/25 00:56:13;;;;;;;5.85;3.83;;;5.50;92.50;;;;;;5009375;28;20337;-85
2024/02/25 00:58:40;;;;;;;4.43;3.25;;;5.50;92.70;;;;;;5000024;28;20196;-85
2024/02/25 01:01:14;;;;;;;3.97;3.05;;;5.50;92.80;;;;;;5010957;28;20565;-84
2024/02/25 01:03:41;;;;;;;6.47;3.08;;;5.50;92.30;;;;;;5016305;28;20202;-85
2024/02/25 01:06:08;;;;;;;3.53;2.80;;;5.70;92.10;;;;;;5013874;28;20222;-85
2024/02/25 01:08:38;;;;;;;3.27;2.77;;;5.80;91.70;;;;;;4990128;28;20218;-89
2024/02/25 01:11:06;;;;;;;4.43;3.03;;;5.70;91.30;;;;;;5009954;28;20207;-84
2024/02/25 01:13:32;;;;;;;6.07;3.50;;;5.60;91.60;;;;;;5008113;28;21643;-84
2024/02/25 01:16:02;;;;;;;3.80;2.92;;;5.50;92.10;;;;;;4990821;28;20231;-84
2024/02/25 01:18:30;;;;;;;5.77;2.93;;;5.40;92.20;;;;;;4986155;28;20275;-85
2024/02/25 01:20:57;;;;;;;5.68;2.88;;;5.40;92.20;;;;;;5008953;28;20199;-84
2024/02/25 01:23:24;;;;;;;4.00;2.72;;;5.50;92.40;;;;;;4994049;28;20317;-85
2024/02/25 01:25:51;;;;;;;3.83;2.73;;;5.40;92.40;;;;;;5011906;28;20659;-84
2024/02/25 01:28:18;;;;;;;2.93;2.63;;;5.40;92.40;;;;;;4990851;28;20311;-86
2024/02/25 01:30:47;;;;;;;3.40;2.73;;;5.30;92.50;;;;;;5006075;28;20199;-84
2024/02/25 01:33:14;;;;;;;4.43;3.40;;;5.30;92.70;;;;;;5011352;28;20199;-86
2024/02/25 01:35:42;;;;;;;3.53;2.97;;;5.30;92.40;;;;;;5009767;28;20200;-84
2024/02/25 01:38:09;;;;;;;4.50;3.33;;;5.30;92.40;;;;;;5008825;28;20713;-84
2024/02/25 01:40:36;;;;;;;3.20;2.60;;;5.20;92.70;;;;;;5000084;28;20202;-86
2024/02/25 01:43:10;;;;;;;3.43;2.70;;;5.20;92.90;;;;;;5013567;28;20238;-89
2024/02/25 01:45:37;;;;;;;3.97;2.90;;;5.20;92.90;;;;;;5010350;28;20206;-84
2024/02/25 01:48:07;;;;;;;3.90;2.80;;;5.20;92.80;;;;;;5004655;28;20209;-88
2024/02/25 01:50:36;;;;;;;3.55;2.88;;;5.20;92.70;;;;;;4994123;28;20199;-84
2024/02/25 01:53:04;;;;;;;3.50;2.53;;;5.20;92.70;;;;;;5004430;28;20204;-90
2024/02/25 01:55:32;;;;;;;4.40;2.73;;;5.10;93.10;;;;;;5001293;28;20199;-85
2024/02/25 01:58:00;;;;;;;4.97;3.27;;;5.00;93.50;;;;;;4990429;28;20771;-84
2024/02/25 02:00:28;;;;;;;4.35;3.05;;;5.00;93.70;;;;;;5010908;28;20207;-85
2024/02/25 02:02:55;;;;;;;5.90;3.03;;;5.00;93.50;;;;;;5008453;28;20207;-84
2024/02/25 02:05:22;;;;;;;5.03;3.03;;;4.90;93.70;;;;;;4991652;28;20550;-85
2024/02/25 02:07:49;;;;;;;3.83;2.93;;;4.90;94.00;;;;;;5008557;28;20199;-84
2024/02/25 02:10:18;;;;;;;3.80;2.80;;;5.00;94.00;;;;;;5001916;28;20214;-85
2024/02/25 02:12:46;;;;;;;3.80;2.67;;;5.10;93.60;;;;;;5008688;28;20556;-85
2024/02/25 02:15:13;;;;;;;3.87;2.50;;;5.10;93.40;;;;;;5010921;28;20206;-84
2024/02/25 02:17:41;;;;;;;4.63;2.43;;;5.30;93.10;;;;;;5011102;28;20695;-85
2024/02/25 02:20:15;;;;;;;3.90;2.63;;;5.30;92.40;;;;;;5001803;28;20260;-86
2024/02/25 02:22:44;;;;;;;4.63;2.47;;;5.30;92.40;;;;;;5009819;28;20203;-87
2024/02/25 02:25:11;;;;;;;4.27;2.90;;;5.30;92.50;;;;;;5012229;28;20211;-85
2024/02/25 02:27:38;;;;;;;3.53;2.63;;;5.30;92.80;;;;;;5005603;28;20208;-85
2024/02/25 02:30:07;;;;;;;4.13;2.80;;;5.40;92.30;;;;;;5009452;28;20200;-85
2024/02/25 02:32:34;;;;;;;2.70;2.47;;;5.50;92.20;;;;;;4998081;28;20705;-90
2024/02/25 02:35:02;;;;;;;3.37;2.57;;;5.50;91.90;;;;;;4994048;28;20207;-85
2024/02/25 02:37:29;;;;;;;3.73;2.37;;;5.50;92.00;;;;;;4990687;28;20211;-85
2024/02/25 02:39:57;;;;;;;3.33;2.40;;;5.60;91.80;;;;;;4991732;28;20207;-85
2024/02/25 02:42:25;;;;;;;4.57;2.90;;;5.60;92.00;;;;;;5008768;28;20211;-84
2024/02/25 02:44:52;;;;;;;2.90;2.47;;;5.70;91.70;;;;;;5003521;28;20217;-85
2024/02/25 02:47:20;;;;;;;4.95;2.63;;;5.70;91.70;;;;;;5005695;28;20664;-86
2024/02/25 02:49:47;;;;;;;2.55;2.35;;;5.60;91.80;;;;;;5010092;28;20257;-85
2024/02/25 02:52:14;;;;;;;4.88;2.33;;;5.60;91.80;;;;;;5014662;28;20206;-86
2024/02/25 02:54:41;;;;;;;3.35;2.53;;;5.60;91.80;;;;;;5011371;28;20234;-85
2024/02/25 02:57:09;;;;;;;3.30;2.58;;;5.70;91.30;;;;;;5003627;28;20247;-85
2024/02/25 02:59:36;;;;;;;2.78;2.35;;;5.80;91.00;;;;;;5010412;28;20195;-86
2024/02/25 03:02:04;;;;;;;3.60;2.60;;;5.90;90.60;;;;;;5011455;28;20242;-84
2024/02/25 03:04:31;;;;;;;2.47;2.20;;;6.00;90.30;;;;;;5000995;28;20207;-84
2024/02/25 03:06:58;;;;;;;5.22;2.60;;;6.00;90.50;;;;;;5000223;28;20276;-85
2024/02/25 03:09:25;;;;;;;3.87;2.37;;;5.90;90.60;;;;;;4994886;28;20204;-85
2024/02/25 03:11:52;;;;;;;5.40;2.60;;;5.70;90.70;;;;;;5008693;28;20683;-90
2024/02/25 03:14:20;;;;;;;3.03;2.40;;;5.50;91.30;;;;;;5004454;28;20279;-85
2024/02/25 03:16:47;;;;;;;2.67;2.17;;;5.40;91.80;;;;;;5006190;28;20222;-85
2024/02/25 03:19:13;;;;;;;2.87;2.50;;;5.30;91.90;;;;;;5010640;28;20220;-85
2024/02/25 03:21:42;;;;;;;5.40;2.20;;;5.40;92.10;;;;;;5010720;28;20195;-85
2024/02/25 03:24:10;;;;;;;3.57;2.50;;;5.50;91.60;;;;;;4999986;28;20250;-87
2024/02/25 03:26:37;;;;;;;2.40;2.20;;;5.50;91.80;;;;;;5005933;28;20600;-85
2024/02/25 03:29:05;;;;;;;4.27;2.50;;;5.60;91.10;;;;;;5010115;28;20207;-84
2024/02/25 03:31:35;;;;;;;3.50;2.37;;;5.60;91.10;;;;;;5012806;28;20200;-84
2024/02/25 03:34:01;;;;;;;4.22;2.40;;;5.50;91.70;;;;;;5000763;28;20207;-85
2024/02/25 03:36:28;;;;;;;3.90;2.10;;;5.30;91.60;;;;;;5011722;28;20207;-87
2024/02/25 03:38:55;;;;;;;3.00;2.10;;;5.30;91.70;;;;;;4995244;28;20264;-87
2024/02/25 03:41:22;;;;;;;3.40;2.30;;;5.20;92.10;;;;;;4986560;28;20199;-85
2024/02/25 03:43:49;;;;;;;3.15;2.60;;;5.20;91.90;;;;;;5001718;28;20209;-84
2024/02/25 03:46:16;;;;;;;3.07;2.10;;;5.30;91.80;;;;;;5009004;28;20199;-84
2024/02/25 03:48:44;;;;;;;2.60;2.27;;;5.30;91.40;;;;;;5009558;28;20200;-85
2024/02/25 03:51:11;;;;;;;3.77;2.80;;;5.40;91.10;;;;;;5010403;28;20204;-84
2024/02/25 03:53:38;;;;;;;3.47;2.60;;;5.50;91.20;;;;;;5012546;28;20210;-87
2024/02/25 03:56:05;;;;;;;2.42;2.20;;;5.60;90.90;;;;;;5014969;28;20207;-85
2024/02/25 03:58:32;;;;;;;3.13;2.40;;;5.50;91.00;;;;;;5011026;28;20215;-84
2024/02/25 04:00:58;;;;;;;5.40;2.60;;;5.40;91.30;;;;;;5018055;28;20206;-84
2024/02/25 04:03:25;;;;;;;3.27;2.67;;;5.50;90.90;;;;;;5002016;28;20687;-87
2024/02/25 04:05:54;;;;;;;2.83;2.00;;;5.50;90.80;;;;;;5011496;28;20203;-84
2024/02/25 04:08:20;;;;;;;2.93;2.40;;;5.60;91.00;;;;;;5009625;28;20199;-84
2024/02/25 04:10:47;;;;;;;2.33;2.13;;;5.50;91.10;;;;;;5014155;28;20211;-84
2024/02/25 04:13:14;;;;;;;3.10;2.00;;;5.60;90.80;;;;;;4993331;28;20195;-85
2024/02/25 04:15:42;;;;;;;2.35;2.15;;;5.60;90.90;;;;;;4996146;28;20195;-84
2024/02/25 04:18:08;;;;;;;3.17;2.50;;;5.40;90.80;;;;;;5003220;28;20223;-85
2024/02/25 04:20:35;;;;;;;3.80;2.10;;;5.20;91.10;;;;;;5011130;28;20207;-85
2024/02/25 04:23:04;;;;;;;3.90;2.30;;;5.20;91.50;;;;;;5007327;28;20288;-85
2024/02/25 04:25:31;;;;;;;3.27;2.23;;;5.20;91.40;;;;;;4993932;28;20203;-85
2024/02/25 04:27:57;;;;;;;5.90;2.20;;;5.20;91.40;;;;;;4990488;28;20298;-87
2024/02/25 04:30:25;;;;;;;2.77;2.23;;;5.30;91.10;;;;;;4993076;28;20206;-85
2024/02/25 04:32:51;;;;;;;4.80;2.57;;;5.40;91.00;;;;;;5013345;28;20753;-85
2024/02/25 04:35:18;;;;;;;5.17;2.60;;;5.30;91.00;;;;;;5014274;28;20207;-84
2024/02/25 04:37:45;;;;;;;4.03;2.10;;;5.30;91.30;;;;;;5010512;28;20223;-84
2024/02/25 04:40:14;;;;;;;2.47;2.10;;;5.10;91.60;;;;;;5010240;28;20199;-86
2024/02/25 04:42:40;;;;;;;2.37;2.13;;;5.10;91.70;;;;;;5010236;28;20199;-85
2024/02/25 04:45:09;;;;;;;2.60;1.80;;;5.00;91.90;;;;;;5007290;28;20211;-85
2024/02/25 04:47:34;;;;;;;5.10;2.30;;;4.80;92.30;;;;;;4996590;28;20211;-84
2024/02/25 04:50:02;;;;;;;4.07;2.13;;;4.70;92.80;;;;;;5002265;28;20204;-84
2024/02/25 04:52:29;;;;;;;3.07;2.10;;;4.60;93.20;;;;;;5007442;28;20195;-84
2024/02/25 04:54:56;;;;;;;2.67;2.10;;;4.60;93.60;;;;;;5004335;28;20203;-85
2024/02/25 04:57:24;;;;;;;4.53;2.13;;;4.70;93.30;;;;;;4995176;28;20227;-84
2024/02/25 04:59:51;;;;;;;2.17;1.97;;;4.60;93.30;;;;;;4997866;28;20223;-87
2024/02/25 05:02:18;;;;;;;4.03;1.97;;;4.50;93.60;;;;;;5011724;28;20585;-85
2024/02/25 05:04:44;;;;;;;3.60;2.00;;;4.50;93.60;;;;;;4995507;28;20226;-88
2024/02/25 05:07:11;;;;;;;2.80;1.80;;;4.50;93.50;;;;;;5015611;28;20285;-84
2024/02/25 05:09:38;;;;;;;2.50;2.20;;;4.50;93.40;;;;;;5009914;28;20598;-86
2024/02/25 05:12:06;;;;;;;3.13;2.10;;;4.40;93.60;;;;;;5008470;28;20246;-86
2024/02/25 05:14:34;;;;;;;4.57;2.07;;;4.40;93.60;;;;;;5005733;28;20206;-84
2024/02/25 05:17:01;;;;;;;2.70;1.80;;;4.40;93.40;;;;;;5012582;28;20655;-84
2024/02/25 05:19:28;;;;;;;3.00;2.20;;;4.50;93.60;;;;;;5010979;28;20215;-84
2024/02/25 05:21:56;;;;;;;2.10;1.90;;;4.50;93.60;;;;;;5013238;28;20210;-85
2024/02/25 05:24:23;;;;;;;2.80;2.50;;;4.50;93.60;;;;;;5014974;28;20202;-85
2024/02/25 05:26:49;;;;;;;3.63;1.90;;;4.40;93.70;;;;;;5004215;28;20191;-84
2024/02/25 05:29:16;;;;;;;3.53;1.97;;;4.30;94.00;;;;;;5010863;28;20203;-85
2024/02/25 05:31:44;;;;;;;1.90;1.70;;;4.20;94.20;;;;;;5006225;28;20200;-84
2024/02/25 05:34:11;;;;;;;2.13;1.83;;;4.20;94.60;;;;;;5010662;28;20207;-84
2024/02/25 05:36:38;;;;;;;2.53;1.90;;;4.30;94.50;;;;;;5007166;28;20210;-85
2024/02/25 05:39:05;;;;;;;3.07;1.90;;;4.20;94.40;;;;;;5009223;28;20223;-84
2024/02/25 05:41:31;;;;;;;3.40;1.73;;;4.10;94.50;;;;;;5013244;28;20214;-85
2024/02/25 05:43:58;;;;;;;2.47;1.93;;;4.10;94.90;;;;;;5006027;28;20199;-85
2024/02/25 05:46:25;;;;;;;3.37;2.27;;;4.10;94.90;;;;;;5001793;28;20620;-85
2024/02/25 05:48:53;;;;;;;2.90;2.10;;;4.10;94.90;;;;;;5010639;28;20575;-84
2024/02/25 05:51:20;;;;;;;2.27;1.93;;;4.10;94.90;;;;;;5002463;28;20203;-85
2024/02/25 05:53:47;;;;;;;2.70;2.00;;;4.10;94.90;;;;;;5003682;28;20249;-85
2024/02/25 05:56:14;;;;;;;2.33;1.90;;;4.10;95.10;;;;;;5005464;28;20594;-85
2024/02/25 05:58:41;;;;;;;2.10;1.90;;;4.20;94.90;;;;;;5009717;28;20230;-86
2024/02/25 06:01:08;;;;;;;3.20;2.00;;;4.30;95.00;;;;;;5009020;28;20570;-87
2024/02/25 06:03:35;;;;;;;2.63;1.90;;;4.30;94.90;;;;;;5003441;28;20508;-86
2024/02/25 06:06:04;;;;;;;2.47;1.90;;;4.40;94.70;;;;;;4983015;28;20262;-86
2024/02/25 06:08:31;;;;;;;2.80;2.17;;;4.40;94.50;;;;;;4990214;28;20206;-86
2024/02/25 06:10:58;;;;;;;3.57;2.37;;;4.50;94.30;;;;;;4997855;28;20712;-85
2024/02/25 06:13:25;;;;;;;2.50;1.90;;;4.50;94.10;;;;;;5007947;28;20217;-85
2024/02/25 06:15:51;;;;;;;2.97;2.20;;;4.50;94.10;;;;;;5004080;28;20213;-87
2024/02/25 06:18:18;;;;;;;2.63;2.13;;;4.50;94.20;;;;;;5008611;28;20226;-84
2024/02/25 06:20:45;;;;;;;1.90;1.70;;;4.50;94.20;;;;;;5000905;28;20195;-85
2024/02/25 06:23:13;;;;;;;2.70;1.77;;;4.50;94.10;;;;;;5006259;28;20207;-85
2024/02/25 06:25:40;;;;;;;2.03;1.83;;;4.50;94.10;;;;;;5008425;28;20202;-84
2024/02/25 06:28:09;;;;;;;3.73;1.77;;;4.40;94.20;;;;;;5004161;28;20671;-87
2024/02/25 06:30:35;;;;;;;3.13;1.70;;;4.40;94.30;;;;;;5009850;28;20691;-86
2024/02/25 06:33:02;;;;;;;4.17;1.70;;;4.40;94.50;;;;;;5011538;28;20195;-85
2024/02/25 06:35:29;;;;;;;2.90;2.10;;;4.40;94.60;;;;;;5013240;28;20215;-88
2024/02/25 06:37:58;;;;;;;3.83;1.83;;;4.30;94.90;;;;;;5011880;28;20203;-85
2024/02/25 06:40:27;;;;;;;2.23;1.90;;;4.30;94.90;;;;;;5008629;28;20273;-86
2024/02/25 06:42:53;;;;;;;3.30;1.87;;;4.30;94.90;;;;;;5007063;28;20211;-89
2024/02/25 06:45:22;;;;;;;3.67;1.90;;;4.20;94.90;;;;;;4995338;28;20196;-85
2024/02/25 06:47:49;;;;;;;3.73;1.90;;;4.20;95.10;;;;;;5010694;28;20578;-85
2024/02/25 06:50:17;;;;;;;4.70;2.00;;;4.10;95.40;;;;;;5011849;28;20289;-87
2024/02/25 06:52:43;;;;;;;2.37;1.93;;;4.10;95.50;;;;;;5010233;28;20200;-87
2024/02/25 06:55:10;;;;;;;4.10;1.90;;;4.10;95.70;;;;;;5010877;28;20200;-85
2024/02/25 06:57:38;;;;;;;3.47;2.30;;;4.20;95.80;;;;;;4989608;28;20220;-85
2024/02/25 07:00:07;;;;;;;2.87;1.67;;;4.20;95.70;;;;;;5007430;28;20223;-85
2024/02/25 07:02:36;;;;;;;2.60;1.90;;;4.30;95.60;;;;;;5014223;28;20558;-85
2024/02/25 07:05:03;;;;;;;3.00;2.23;;;4.30;95.50;;;;;;5013165;28;20203;-88
2024/02/25 07:07:30;;;;;;;3.10;2.30;;;4.30;95.50;;;;;;5014500;28;20210;-85
2024/02/25 07:09:57;;;;;;;2.73;2.20;;;4.30;95.40;;;;;;5013485;28;20226;-84
2024/02/25 07:12:24;;;;;;;2.77;2.27;;;4.50;95.20;;;;;;5005096;28;20203;-85
2024/02/25 07:14:54;;;;;;;3.53;2.20;;;4.50;95.00;;;;;;5004491;28;20210;-84
2024/02/25 07:17:20;;;;;;;3.40;2.70;;;4.60;95.00;;;;;;5009714;28;20203;-84
2024/02/25 07:19:47;;;;;;;3.90;2.53;;;4.60;95.00;;;;;;5004171;28;20216;-85
2024/02/25 07:22:15;;;;;;;2.50;1.93;;;4.60;95.00;;;;;;5010806;28;20223;-85
2024/02/25 07:24:42;;;;;;;3.80;2.63;;;4.70;95.00;;;;;;5008545;28;20202;-85
2024/02/25 07:27:09;;;;;;;3.50;2.37;;;4.80;94.90;;;;;;4994241;28;20238;-84
2024/02/25 07:29:36;;;;;;;3.10;2.43;;;4.80;95.00;;;;;;5010855;28;20207;-87
2024/02/25 07:32:05;;;;;;;2.73;2.10;;;4.90;94.80;;;;;;5012467;28;20210;-84
2024/02/25 07:34:33;;;;;;;3.97;2.50;;;5.10;94.60;;;;;;5009703;28;20200;-85
2024/02/25 07:37:00;;;;;;;2.47;1.90;;;5.20;93.70;;;;;;5016376;28;20203;-85
2024/02/25 07:39:26;;;;;;;2.07;1.87;;;5.40;92.50;;;;;;5011270;28;20221;-84
2024/02/25 07:41:53;;;;;;;1.90;1.73;;;5.50;92.10;;;;;;4996991;28;20253;-85
2024/02/25 07:44:20;;;;;;;2.47;2.00;;;5.60;91.80;;;;;;4994875;28;20266;-86
2024/02/25 07:46:47;;;;;;;2.23;1.83;;;5.70;91.30;;;;;;4996540;28;20222;-86
2024/02/25 07:49:15;;;;;;;2.33;1.87;;;5.70;91.00;;;;;;4993847;28;20203;-87
2024/02/25 07:51:42;;;;;;;3.10;1.90;;;5.70;91.20;;;;;;5007072;28;20204;-87
2024/02/25 07:54:09;;;;;;;1.88;1.65;;;5.60;91.40;;;;;;5011096;28;20686;-84
2024/02/25 07:56:39;;;;;;;3.80;1.63;;;5.60;91.30;;;;;;5006549;28;20227;-85
2024/02/25 07:59:05;;;;;;;2.47;1.77;;;5.60;91.10;;;;;;5012523;28;20305;-85
2024/02/25 08:01:36;;;;;;;2.13;1.90;;;5.60;91.30;;;;;;4998494;28;20191;-86
2024/02/25 08:04:03;;;;;;;1.70;1.58;;;5.80;91.20;;;;;;5004724;28;20211;-84
2024/02/25 08:06:32;;;;;;;1.88;1.67;;;5.90;90.70;;;;;;5015821;28;20203;-85
2024/02/25 08:08:59;;;;;;;2.88;2.22;;;6.00;90.60;;;;;;5007468;28;20205;-86
2024/02/25 08:11:26;;;;;;;1.77;1.67;;;6.10;90.50;;;;;;5037243;28;20281;-87
2024/02/25 08:17:42;;;;;;;2.42;2.08;;;6.60;88.70;;;;;;5007517;28;20186;-87
2024/02/25 08:23:49;;;;;;;1.45;1.35;;;7.00;84.80;;;;;;5016144;28;20202;-88
2024/02/25 08:26:24;;;;;;;2.22;1.40;;;7.20;80.90;;;;;;4998756;28;20644;-87
2024/02/25 08:28:51;;;;;;;3.17;1.85;;;7.10;81.00;;;;;;5016465;28;20195;-87
2024/02/25 08:31:18;;;;;;;2.92;1.60;;;7.40;80.30;;;;;;5015300;28;20211;-86
2024/02/25 08:33:52;;;;;;;1.60;1.48;;;7.50;79.90;;;;;;4998438;28;20658;-86
2024/02/25 08:36:19;;;;;;;2.92;1.40;;;7.50;78.80;;;;;;5016533;28;20238;-86
2024/02/25 08:38:48;;;;;;;1.40;1.30;;;7.70;77.90;;;;;;5015622;28;20555;-86
2024/02/25 08:41:40;;;;;;;1.70;1.30;;;8.00;74.40;;;;;;4982905;28;20211;-87
2024/02/25 08:48:15;;;;;;;1.20;1.13;;;8.30;65.00;;;;;;5016102;28;20162;-87
2024/02/25 08:50:42;;;;;;;1.63;1.38;;;8.20;64.70;;;;;;4997997;28;20191;-87
2024/02/25 08:53:09;;;;;;;1.95;1.25;;;8.00;68.30;;;;;;5012090;28;20671;-90
2024/02/25 08:55:37;;;;;;;1.48;1.10;;;7.90;67.00;;;;;;5017031;28;20203;-85
2024/02/25 09:09:12;;;;;;;2.70;1.27;;;10.90;36.60;;;;;;5015339;28;20175;-89
2024/02/25 09:18:59;;;;;;;1.40;1.23;;;13.10;26.20;;;;;;5015443;28;20622;-89
2024/02/25 09:21:25;;;;;;;1.75;1.30;;;14.10;20.80;;;;;;5015216;28;20210;-88
2024/02/25 09:23:52;;;;;;;4.35;1.30;;;15.00;18.80;;;;;;5015674;28;20184;-90
2024/02/25 09:37:00;;;;;;;1.60;1.30;;;16.90;14.00;;;;;;4997210;28;20199;-88
2024/02/25 09:39:28;;;;;;;1.30;1.17;;;17.90;10.60;;;;;;5006509;28;20582;-83
2024/02/25 09:41:55;;;;;;;2.17;1.20;;;19.00;10.30;;;;;;5010972;28;20687;-83
2024/02/25 09:44:24;;;;;;;1.40;1.30;;;19.20;8.80;;;;;;5011359;28;20644;-83
2024/02/25 09:46:52;;;;;;;1.20;1.10;;;19.00;8.00;;;;;;5011932;28;20203;-85
2024/02/25 09:49:19;;;;;;;1.77;1.38;;;19.40;7.30;;;;;;5013664;28;20210;-86
2024/02/25 09:51:48;;;;;;;2.90;1.52;;;19.40;7.60;;;;;;5008816;28;20201;-92
2024/02/25 09:54:17;;;;;;;1.60;1.23;;;19.20;6.70;;;;;;5008176;28;20203;-84
2024/02/25 09:56:49;;;;;;;1.83;1.73;;;19.50;7.50;;;;;;5005515;28;21511;-86
2024/02/25 09:59:16;;;;;;;1.38;1.27;;;19.80;7.50;;;;;;5005223;28;20619;-86
2024/02/25 10:01:45;;;;;;;1.85;0.88;;;19.70;6.70;;;;;;5011639;28;20199;-85
2024/02/25 10:04:12;;;;;;;1.58;1.00;;;19.10;7.00;;;;;;5013972;28;20632;-85
2024/02/25 10:06:39;;;;;;;0.98;0.68;;;19.00;7.50;;;;;;5012587;28;20593;-82
2024/02/25 10:09:10;;;;;;;0.90;0.90;;;18.30;7.60;;;;;;5017984;28;20206;-82
2024/02/25 10:11:39;;;;;;;0.95;0.80;;;18.30;7.70;;;;;;5030312;28;20183;-85
2024/02/25 10:14:06;;;;;;;0.95;0.90;;;18.60;6.60;;;;;;5013670;28;20207;-84
2024/02/25 10:16:32;;;;;;;1.48;1.02;;;17.90;6.60;;;;;;5016734;28;20195;-82
2024/02/25 10:19:03;;;;;;;2.08;0.70;;;17.90;9.70;;;;;;5013195;28;20210;-82
2024/02/25 10:21:29;;;;;;;0.93;0.80;;;18.10;7.30;;;;;;5009964;28;20567;-83
2024/02/25 10:23:56;;;;;;;1.02;1.02;;;18.30;6.50;;;;;;5005225;28;20648;-83
2024/02/25 10:26:25;;;;;;;0.80;0.80;;;18.50;6.40;;;;;;5016598;28;20559;-82
2024/02/25 10:29:05;;;;;;;0.90;0.88;;;18.20;7.50;;;;;;5007523;28;20210;-84
2024/02/25 10:31:32;;;;;;;1.63;0.90;;;17.50;6.10;;;;;;4993447;28;20203;-85
2024/02/25 10:33:59;;;;;;;0.75;0.75;;;17.20;7.10;;;;;;5019766;28;20548;-85
2024/02/25 10:36:27;;;;;;;0.77;0.70;;;16.90;9.00;;;;;;5017120;28;20203;-85
2024/02/25 10:38:55;;;;;;;0.95;0.70;;;16.50;8.70;;;;;;5017991;28;20173;-85
2024/02/25 10:41:23;;;;;;;0.70;0.70;;;16.00;8.40;;;;;;5022267;28;20223;-86
2024/02/25 10:43:53;;;;;;;0.70;0.70;;;15.90;8.30;;;;;;5020668;28;20233;-82
2024/02/25 10:46:42;;;;;;;1.63;0.90;;;16.70;8.80;;;;;;5020552;28;20207;-83
2024/02/25 10:49:13;;;;;;;1.10;0.80;;;16.50;8.70;;;;;;5026438;28;20230;-84
2024/02/25 10:51:41;;;;;;;1.00;0.80;;;15.80;11.60;;;;;;5037744;28;20198;-87
2024/02/25 10:54:10;;;;;;;0.75;0.73;;;15.90;8.50;;;;;;5031262;28;20286;-87
2024/02/25 10:56:40;;;;;;;0.80;0.80;;;15.10;10.60;;;;;;4999088;28;20281;-90
2024/02/25 10:59:17;;;;;;;4.28;0.93;;;15.50;9.80;;;;;;5021532;28;20202;-86
2024/02/25 11:01:48;;;;;;;0.75;0.73;;;15.60;9.20;;;;;;5017955;28;20298;-83
2024/02/25 11:04:16;;;;;;;2.22;0.80;;;16.10;8.50;;;;;;5013941;28;20294;-91
2024/02/25 11:06:44;;;;;;;0.98;0.85;;;16.50;8.70;;;;;;5001537;28;20261;-86
2024/02/25 11:09:13;;;;;;;1.20;0.90;;;16.30;8.60;;;;;;5016368;28;20690;-86
2024/02/25 11:11:40;;;;;;;3.55;1.00;;;16.50;8.70;;;;;;5010171;28;20655;-86
2024/02/25 11:14:08;;;;;;;0.95;0.90;;;15.80;8.30;;;;;;5012811;28;20648;-86
2024/02/25 11:16:43;;;;;;;1.30;1.15;;;16.00;8.90;;;;;;5011591;28;20203;-86
2024/02/25 11:19:14;;;;;;;0.80;0.80;;;16.30;10.80;;;;;;5009973;28;20213;-86
2024/02/25 11:21:41;;;;;;;1.63;1.00;;;16.10;8.40;;;;;;5008410;28;20227;-86
2024/02/25 11:24:12;;;;;;;0.85;0.85;;;15.70;9.30;;;;;;5012033;28;20203;-86
2024/02/25 11:26:40;;;;;;;2.30;0.93;;;14.70;10.50;;;;;;5011947;28;20584;-85
2024/02/25 11:29:17;;;;;;;0.85;0.82;;;14.00;12.10;;;;;;4996391;28;20203;-86
2024/02/25 11:31:56;;;;;;;1.90;0.90;;;13.20;13.30;;;;;;4998570;28;20199;-85
2024/02/25 11:34:27;;;;;;;2.65;0.90;;;12.60;14.90;;;;;;5021287;28;20202;-85
2024/02/25 11:36:56;;;;;;;1.65;0.70;;;12.50;15.20;;;;;;4991451;28;20237;-86
2024/02/25 11:39:26;;;;;;;1.52;0.80;;;12.30;15.30;;;;;;5015230;28;20202;-84
2024/02/25 11:41:55;;;;;;;0.65;0.65;;;12.30;15.30;;;;;;4995134;28;20227;-85
2024/02/25 11:44:24;;;;;;;1.75;0.70;;;12.00;15.60;;;;;;5012816;28;20207;-85
2024/02/25 11:46:59;;;;;;;1.02;0.90;;;11.80;15.70;;;;;;5031507;28;20246;-85
2024/02/25 11:49:29;;;;;;;2.92;0.93;;;11.60;16.90;;;;;;5014960;28;20202;-84
2024/02/25 11:51:56;;;;;;;0.80;0.80;;;11.50;17.50;;;;;;5016411;28;20302;-84
2024/02/25 11:54:23;;;;;;;1.60;0.90;;;11.70;17.50;;;;;;5014952;28;20257;-84
2024/02/25 11:56:50;;;;;;;1.13;0.98;;;11.80;17.40;;;;;;5010849;28;20584;-85
2024/02/25 11:59:20;;;;;;;0.90;0.90;;;12.00;16.90;;;;;;5015640;28;20215;-86
2024/02/25 12:01:48;;;;;;;1.27;1.00;;;11.60;17.30;;;;;;5015134;28;20212;-84
2024/02/25 12:04:17;;;;;;;0.82;0.80;;;11.80;17.50;;;;;;5015958;28;20404;-85
2024/02/25 12:06:46;;;;;;;1.38;0.85;;;11.90;17.80;;;;;;4994183;28;20219;-84
2024/02/25 12:09:14;;;;;;;1.05;0.90;;;11.70;17.50;;;;;;4997680;28;20210;-84
2024/02/25 12:11:41;;;;;;;1.00;0.88;;;11.80;18.40;;;;;;5014876;28;20201;-84
2024/02/25 12:14:18;;;;;;;0.85;0.85;;;11.80;17.40;;;;;;5009176;28;20199;-85
2024/02/25 12:16:46;;;;;;;0.90;0.90;;;11.80;17.20;;;;;;5006070;28;20564;-84
2024/02/25 12:19:14;;;;;;;1.60;1.10;;;11.80;17.00;;;;;;5016031;28;20636;-85
2024/02/25 12:21:42;;;;;;;1.27;1.13;;;11.60;17.30;;;;;;4993097;28;20223;-84
2024/02/25 12:24:11;;;;;;;1.25;0.90;;;11.20;18.20;;;;;;5020481;28;20202;-85
2024/02/25 12:26:51;;;;;;;1.02;0.90;;;11.10;18.50;;;;;;5015594;28;20207;-84
2024/02/25 12:29:19;;;;;;;1.40;1.00;;;11.30;18.90;;;;;;5008576;28;20206;-84
2024/02/25 12:31:47;;;;;;;1.45;1.08;;;11.50;17.90;;;;;;4996412;28;20213;-85
2024/02/25 12:34:19;;;;;;;1.98;1.20;;;11.20;18.20;;;;;;5015392;28;20265;-83
2024/02/25 12:36:47;;;;;;;0.85;0.80;;;11.40;18.10;;;;;;5015468;28;20214;-84
2024/02/25 12:39:20;;;;;;;0.80;0.80;;;11.30;18.10;;;;;;5015764;28;20207;-84
2024/02/25 12:45:13;;;;;;;1.05;0.90;;;11.40;18.30;;;;;;5015443;28;20210;-84
2024/02/25 12:47:40;;;;;;;1.10;1.00;;;11.40;18.20;;;;;;5014955;28;20290;-84
2024/02/25 12:50:08;;;;;;;1.05;0.88;;;11.40;18.10;;;;;;5016111;28;20202;-84
2024/02/25 12:52:35;;;;;;;1.20;1.10;;;11.40;19.30;;;;;;5013193;28;20203;-84
2024/02/25 12:55:05;;;;;;;1.30;1.20;;;11.40;19.20;;;;;;5014828;28;20199;-86
2024/02/25 12:57:32;;;;;;;2.55;1.60;;;11.20;19.10;;;;;;4997790;28;20220;-84
2024/02/25 12:59:59;;;;;;;1.23;1.13;;;11.40;19.30;;;;;;5017036;28;20265;-84
2024/02/25 13:02:26;;;;;;;1.13;1.02;;;11.50;19.50;;;;;;5034539;28;20198;-85
2024/02/25 13:04:55;;;;;;;1.30;1.20;;;11.40;18.00;;;;;;5029350;28;20225;-84
2024/02/25 13:07:23;;;;;;;3.00;1.30;;;11.20;20.00;;;;;;5013442;28;20265;-84
2024/02/25 13:09:50;;;;;;;3.30;1.30;;;11.40;19.00;;;;;;5010355;28;20636;-85
2024/02/25 13:12:19;;;;;;;1.40;1.20;;;11.50;18.80;;;;;;4996683;28;20249;-84
2024/02/25 13:14:45;;;;;;;1.55;1.20;;;11.50;18.50;;;;;;5011684;28;20376;-84
2024/02/25 13:17:43;;;;;;;1.00;1.00;;;11.60;18.80;;;;;;5027003;28;20667;-86
2024/02/25 13:20:14;;;;;;;1.70;1.00;;;11.50;18.90;;;;;;5005894;28;20314;-84
2024/02/25 13:22:41;;;;;;;1.45;1.00;;;11.70;17.60;;;;;;5013113;28;20282;-84
2024/02/25 13:25:08;;;;;;;1.42;1.10;;;11.70;17.70;;;;;;5007437;28;20208;-85
2024/02/25 13:27:37;;;;;;;2.53;1.13;;;11.60;17.70;;;;;;5013252;28;20199;-84
2024/02/25 13:30:04;;;;;;;1.48;1.30;;;11.70;18.00;;;;;;5011363;28;20203;-84
2024/02/25 13:32:31;;;;;;;1.58;1.23;;;11.70;17.50;;;;;;5015376;28;20195;-85
2024/02/25 13:34:58;;;;;;;1.27;1.08;;;11.70;17.50;;;;;;5010911;28;20564;-84
2024/02/25 13:37:25;;;;;;;0.90;0.90;;;11.70;17.20;;;;;;5011760;28;20294;-85
2024/02/25 13:39:52;;;;;;;1.20;1.10;;;11.60;17.50;;;;;;5010414;28;20210;-84
2024/02/25 13:42:19;;;;;;;1.75;1.20;;;11.60;17.40;;;;;;5011980;28;20703;-86
2024/02/25 13:44:48;;;;;;;1.30;1.10;;;11.70;16.60;;;;;;5015276;28;20209;-84